Time;durP1;ratioP1;P1;durP2;ratioP2;P2;SDS_P1;SDS_P2;PMS_P1;PMS_P2;Temp;Humidity;BMP_temperature;BMP_pressure;BME280_temperature;BME280_humidity;BME280_pressure;Samples;Min_cycle;Max_cycle;Signal;HPM_P1;HPM_P2
2022/11/08 00:03:50;;;;;;;5.18;1.20;;;;;;;13.72;99.03;100200.22;8302450;28;20120;-52
2022/11/08 00:16:32;;;;;;;6.55;1.92;;;;;;;13.82;97.87;100198.22;8293886;28;20041;-52
2022/11/08 00:20:33;;;;;;;8.90;1.98;;;;;;;13.81;97.99;100199.19;8294282;28;20099;-50
2022/11/08 00:24:34;;;;;;;4.80;1.45;;;;;;;13.74;98.61;100199.06;8309331;28;20065;-50
2022/11/08 00:28:34;;;;;;;4.93;1.23;;;;;;;13.73;98.84;100201.94;8293778;28;20029;-51
2022/11/08 00:32:35;;;;;;;5.43;1.50;;;;;;;13.73;99.02;100201.94;8294063;28;20038;-52
2022/11/08 00:36:36;;;;;;;4.88;1.60;;;;;;;13.64;100.00;100197.50;8293855;28;20040;-52
2022/11/08 00:40:36;;;;;;;6.38;1.80;;;;;;;13.51;100.00;100197.16;8275354;28;20499;-50
2022/11/08 00:44:37;;;;;;;7.90;2.72;;;;;;;13.42;100.00;100198.16;8292506;28;20104;-50
2022/11/08 00:48:37;;;;;;;5.90;2.08;;;;;;;13.40;100.00;100194.75;8293623;28;20026;-51
2022/11/08 00:52:38;;;;;;;7.13;2.28;;;;;;;13.38;100.00;100185.91;8293258;28;20432;-51
2022/11/08 00:56:39;;;;;;;4.68;2.08;;;;;;;13.43;100.00;100183.56;8293389;28;20045;-52
2022/11/08 01:00:39;;;;;;;12.82;2.42;;;;;;;13.44;100.00;100186.09;8293007;28;20037;-51
2022/11/08 01:04:40;;;;;;;7.55;2.35;;;;;;;13.51;100.00;100181.69;8292890;28;20041;-51
2022/11/08 01:08:41;;;;;;;10.93;3.00;;;;;;;13.47;100.00;100182.19;8293208;28;20459;-51
2022/11/08 01:12:41;;;;;;;14.18;2.40;;;;;;;13.50;100.00;100177.28;8292374;28;20045;-50
2022/11/08 01:16:43;;;;;;;8.35;2.25;;;;;;;13.46;100.00;100178.66;8307747;28;20057;-51
2022/11/08 01:20:46;;;;;;;8.95;1.77;;;;;;;13.45;100.00;100165.22;8292774;28;20116;-55
2022/11/08 01:24:47;;;;;;;7.15;2.40;;;;;;;13.45;100.00;100165.22;8292067;28;20042;-50
2022/11/08 01:28:47;;;;;;;7.95;2.03;;;;;;;13.44;100.00;100158.94;8292485;28;20084;-50
2022/11/08 01:32:48;;;;;;;6.43;1.85;;;;;;;13.43;100.00;100161.81;8290343;28;20041;-51
2022/11/08 01:36:48;;;;;;;8.05;2.00;;;;;;;13.46;100.00;100145.19;8292184;28;20042;-51
2022/11/08 01:40:49;;;;;;;7.22;2.00;;;;;;;13.49;100.00;100156.59;8292318;28;20088;-51
2022/11/08 01:45:07;;;;;;;6.65;2.20;;;;;;;13.39;100.00;100150.44;8292604;28;20041;-50
2022/11/08 01:49:32;;;;;;;5.78;2.05;;;;;;;13.33;100.00;100155.72;8292216;28;20503;-51
2022/11/08 01:53:33;;;;;;;7.00;2.10;;;;;;;13.15;100.00;100144.13;8286280;28;20054;-55
2022/11/08 01:57:57;;;;;;;9.95;2.33;;;;;;;13.18;100.00;100147.34;8289583;28;20037;-51
2022/11/08 02:01:58;;;;;;;6.88;2.20;;;;;;;13.31;100.00;100146.88;8289934;28;20041;-52
2022/11/08 02:06:00;;;;;;;5.50;2.00;;;;;;;13.21;100.00;100140.75;8291883;28;20133;-51
2022/11/08 02:10:02;;;;;;;5.68;1.90;;;;;;;13.04;100.00;100144.44;8291564;28;20084;-52
2022/11/08 02:14:03;;;;;;;5.60;1.85;;;;;;;13.00;100.00;100132.22;8291000;28;20057;-51
2022/11/08 02:18:04;;;;;;;12.15;2.00;;;;;;;13.00;100.00;100137.63;8292231;28;20141;-53
2022/11/08 02:22:14;;;;;;;9.40;2.30;;;;;;;12.98;100.00;100134.19;8291641;28;20129;-52
2022/11/08 02:26:18;;;;;;;12.70;2.58;;;;;;;12.89;100.00;100124.34;8291925;28;20049;-53
2022/11/08 02:30:18;;;;;;;8.87;2.20;;;;;;;12.88;100.00;100128.06;8291738;28;20491;-52
2022/11/08 02:34:26;;;;;;;8.38;1.95;;;;;;;12.95;100.00;100129.97;8291863;28;20415;-51
2022/11/08 02:38:26;;;;;;;9.60;2.35;;;;;;;12.80;100.00;100126.19;8284744;28;20045;-51
2022/11/08 02:42:27;;;;;;;7.80;2.50;;;;;;;12.69;100.00;100102.06;8295501;28;20037;-52
2022/11/08 02:46:28;;;;;;;11.18;3.25;;;;;;;12.61;100.00;100106.59;8297800;28;20034;-55
2022/11/08 02:50:28;;;;;;;8.93;2.72;;;;;;;12.40;100.00;100095.31;8297244;28;20403;-54
2022/11/08 02:54:29;;;;;;;7.63;2.90;;;;;;;12.25;100.00;100080.69;8296149;28;20066;-53
2022/11/08 02:58:30;;;;;;;10.77;2.85;;;;;;;12.15;100.00;100086.25;8296752;28;20054;-54
2022/11/08 03:02:30;;;;;;;9.10;2.78;;;;;;;12.16;100.00;100058.13;8296432;28;20047;-54
2022/11/08 03:06:31;;;;;;;7.22;2.78;;;;;;;12.26;100.00;100055.28;8295110;28;20092;-54
2022/11/08 03:10:31;;;;;;;8.55;2.65;;;;;;;12.30;100.00;100051.25;8296655;28;20153;-52
2022/11/08 03:14:32;;;;;;;14.75;2.45;;;;;;;12.18;100.00;100042.56;8296935;28;20069;-51
2022/11/08 03:18:32;;;;;;;7.47;2.60;;;;;;;12.04;100.00;100039.63;8296201;28;20050;-52
2022/11/08 03:22:33;;;;;;;6.13;2.65;;;;;;;11.88;100.00;100037.66;8296061;28;20088;-51
2022/11/08 03:26:33;;;;;;;14.35;3.33;;;;;;;11.77;100.00;100036.06;8293847;28;20044;-53
2022/11/08 03:30:35;;;;;;;9.70;3.22;;;;;;;11.71;100.00;100028.56;8295187;28;20045;-54
2022/11/08 03:34:35;;;;;;;8.75;3.63;;;;;;;11.79;100.00;100042.19;8301377;28;20053;-55
2022/11/08 03:38:36;;;;;;;8.70;2.90;;;;;;;11.78;100.00;100024.22;8293253;28;20034;-51
2022/11/08 03:42:36;;;;;;;5.70;2.30;;;;;;;11.77;100.00;100027.94;8294991;28;20446;-51
2022/11/08 03:46:37;;;;;;;5.50;2.55;;;;;;;11.88;100.00;100024.97;8295837;28;20052;-53
2022/11/08 03:50:38;;;;;;;7.90;2.50;;;;;;;11.89;100.00;100015.81;8309537;28;20034;-55
2022/11/08 03:54:38;;;;;;;7.25;2.00;;;;;;;11.88;100.00;100003.31;8292828;28;20112;-52
2022/11/08 03:58:39;;;;;;;10.07;2.80;;;;;;;12.03;100.00;99991.84;8289359;28;20045;-51
2022/11/08 04:02:40;;;;;;;6.00;2.10;;;;;;;12.14;100.00;99997.81;8295025;28;20053;-52
2022/11/08 04:06:41;;;;;;;5.00;2.63;;;;;;;12.10;100.00;100006.47;8294723;28;20073;-54
2022/11/08 04:10:41;;;;;;;5.00;1.88;;;;;;;12.15;100.00;100001.38;8292761;28;20042;-54
2022/11/08 04:15:42;;;;;;;7.78;2.60;;;;;;;12.03;100.00;100005.38;8294092;28;20042;-51
2022/11/08 04:23:23;;;;;;;9.23;2.85;;;;;;;11.83;100.00;100000.22;8293906;28;20045;-52
2022/11/08 04:27:24;;;;;;;8.82;2.47;;;;;;;11.70;100.00;99986.28;8293282;28;20037;-55
2022/11/08 04:31:24;;;;;;;7.32;2.70;;;;;;;11.70;100.00;99977.28;8293880;28;20487;-53
2022/11/08 04:35:25;;;;;;;6.82;2.55;;;;;;;11.66;100.00;99982.19;8295196;28;20046;-53
2022/11/08 04:39:25;;;;;;;10.02;2.55;;;;;;;11.63;100.00;99971.69;8295517;28;20121;-54
2022/11/08 04:43:26;;;;;;;8.63;2.75;;;;;;;11.58;100.00;99973.97;8293326;28;20057;-55
2022/11/08 04:47:27;;;;;;;8.52;2.85;;;;;;;11.53;100.00;99970.06;8293118;28;20033;-55
2022/11/08 04:51:30;;;;;;;10.77;3.72;;;;;;;11.47;100.00;99960.69;8292849;28;20100;-52
2022/11/08 04:55:31;;;;;;;8.50;3.10;;;;;;;11.39;100.00;99957.97;8293308;28;20062;-54
2022/11/08 04:59:31;;;;;;;8.85;2.72;;;;;;;11.36;100.00;99950.16;8291077;28;20080;-55
2022/11/08 05:03:33;;;;;;;6.47;3.10;;;;;;;11.25;100.00;99934.19;8283433;28;20045;-55
2022/11/08 05:07:33;;;;;;;8.27;2.75;;;;;;;11.25;100.00;99928.78;8288205;28;20503;-54
2022/11/08 05:11:34;;;;;;;5.68;2.50;;;;;;;11.22;100.00;99915.56;8282924;28;20460;-52
2022/11/08 05:15:35;;;;;;;7.80;3.40;;;;;;;11.24;100.00;99916.25;8285315;28;20042;-51
2022/11/08 05:23:58;;;;;;;4.88;3.20;;;;;;;11.31;100.00;99906.47;8255685;28;20045;-54
2022/11/08 05:27:58;;;;;;;11.70;3.58;;;;;;;11.28;100.00;99901.38;8258909;28;20041;-51
2022/11/08 05:31:59;;;;;;;6.60;3.63;;;;;;;11.17;100.00;99892.72;8279919;28;20589;-52
2022/11/08 05:36:05;;;;;;;9.65;3.47;;;;;;;10.99;100.00;99881.94;8304362;28;20076;-55
2022/11/08 05:40:06;;;;;;;7.35;4.13;;;;;;;10.91;100.00;99860.25;8267432;28;20042;-53
2022/11/08 05:44:07;;;;;;;9.38;4.68;;;;;;;10.93;100.00;99863.66;8282450;28;20048;-54
2022/11/08 05:48:08;;;;;;;12.32;4.45;;;;;;;11.04;100.00;99866.06;8287841;28;20073;-54
2022/11/08 05:52:09;;;;;;;9.85;4.93;;;;;;;11.05;100.00;99850.69;8287959;28;20037;-55
2022/11/08 05:56:12;;;;;;;11.00;4.22;;;;;;;11.20;100.00;99836.41;8288009;28;20041;-55
2022/11/08 06:00:13;;;;;;;7.47;4.05;;;;;;;11.35;100.00;99842.91;8276779;28;20030;-54
2022/11/08 06:04:13;;;;;;;5.75;3.28;;;;;;;11.52;100.00;99833.84;8271004;28;20038;-55
2022/11/08 06:08:14;;;;;;;11.30;4.10;;;;;;;11.53;100.00;99840.13;8286797;28;20058;-52
2022/11/08 06:12:14;;;;;;;6.75;3.75;;;;;;;11.58;100.00;99844.03;8287161;28;20577;-55
2022/11/08 06:16:18;;;;;;;8.50;3.08;;;;;;;11.52;100.00;99850.09;8288423;28;20519;-54
2022/11/08 06:20:18;;;;;;;8.93;3.38;;;;;;;11.37;100.00;99838.19;8292957;28;20438;-53
2022/11/08 06:24:19;;;;;;;8.57;4.07;;;;;;;11.26;100.00;99841.16;8292263;28;20034;-55
2022/11/08 06:28:20;;;;;;;10.13;3.88;;;;;;;11.15;100.00;99851.44;8288388;28;20136;-55
2022/11/08 06:32:21;;;;;;;8.70;4.28;;;;;;;11.05;100.00;99859.69;8273684;28;20403;-52
2022/11/08 06:36:21;;;;;;;6.13;3.75;;;;;;;11.08;100.00;99855.78;8280318;28;20137;-55
2022/11/08 06:40:22;;;;;;;8.85;3.50;;;;;;;11.02;100.00;99854.59;8289566;28;20034;-54
2022/11/08 06:44:23;;;;;;;6.18;3.78;;;;;;;11.03;100.00;99864.38;8292371;28;20543;-55
2022/11/08 06:48:23;;;;;;;11.48;3.85;;;;;;;11.05;100.00;99856.97;8292511;28;20042;-52
2022/11/08 06:52:24;;;;;;;13.40;3.78;;;;;;;11.07;100.00;99854.09;8293173;28;20478;-53
2022/11/08 06:56:24;;;;;;;8.55;4.10;;;;;;;11.00;100.00;99853.88;8289677;28;20073;-52
2022/11/08 07:00:26;;;;;;;10.85;3.80;;;;;;;10.98;100.00;99842.38;8288372;28;20042;-55
2022/11/08 07:04:26;;;;;;;13.80;6.55;;;;;;;11.03;100.00;99852.69;8287005;28;20542;-51
2022/11/08 07:08:27;;;;;;;42.20;18.17;;;;;;;11.04;100.00;99839.03;8289476;28;20441;-51
2022/11/08 07:12:28;;;;;;;40.80;15.43;;;;;;;11.13;100.00;99853.47;8290301;28;20038;-53
2022/11/08 07:16:28;;;;;;;14.60;7.70;;;;;;;11.20;100.00;99858.03;8291456;28;20034;-53
2022/11/08 07:20:29;;;;;;;6.90;3.72;;;;;;;11.33;100.00;99861.19;8290079;28;20037;-52
2022/11/08 07:24:29;;;;;;;6.03;3.13;;;;;;;11.41;100.00;99869.31;8291022;28;20060;-54
2022/11/08 07:28:30;;;;;;;11.32;3.08;;;;;;;11.42;100.00;99871.03;8288754;28;20037;-54
2022/11/08 07:32:31;;;;;;;5.68;2.90;;;;;;;11.45;100.00;99875.28;8265330;28;20061;-55
2022/11/08 07:36:31;;;;;;;4.60;1.88;;;;;;;11.64;100.00;99866.91;8307658;28;20068;-53
2022/11/08 07:40:34;;;;;;;5.10;2.75;;;;;;;11.90;100.00;99855.00;8305306;28;20042;-55
2022/11/08 07:44:34;;;;;;;7.28;2.00;;;;;;;12.13;99.33;99846.25;8284613;28;20042;-55
2022/11/08 07:48:35;;;;;;;5.00;2.05;;;;;;;12.17;98.61;99834.06;8279284;28;20042;-52
2022/11/08 07:52:36;;;;;;;2.95;1.45;;;;;;;12.48;96.43;99826.97;8271607;28;20045;-55
2022/11/08 07:56:36;;;;;;;4.93;1.70;;;;;;;12.76;93.72;99842.72;8276127;28;20034;-51
2022/11/08 08:00:39;;;;;;;4.25;1.70;;;;;;;12.99;91.34;99843.72;8288460;28;20073;-53
2022/11/08 08:04:40;;;;;;;3.92;1.70;;;;;;;13.08;90.57;99833.69;8289045;28;20034;-51
2022/11/08 08:08:40;;;;;;;3.50;1.90;;;;;;;13.17;90.34;99825.38;8287882;28;20076;-54
2022/11/08 08:12:41;;;;;;;4.97;1.63;;;;;;;13.24;89.66;99852.69;8275988;28;20573;-52
2022/11/08 08:16:41;;;;;;;2.85;1.95;;;;;;;13.28;89.37;99843.16;8270966;28;20041;-51
2022/11/08 08:20:42;;;;;;;2.42;1.63;;;;;;;13.30;89.48;99836.53;8281023;28;20065;-50
2022/11/08 08:24:42;;;;;;;8.77;2.05;;;;;;;13.28;89.86;99864.88;8257967;28;20036;-52
2022/11/08 08:28:43;;;;;;;4.07;1.83;;;;;;;13.32;90.20;99866.22;8281965;28;20048;-53
2022/11/08 08:32:45;;;;;;;2.70;1.60;;;;;;;13.35;89.36;99872.16;8287328;28;20044;-54
2022/11/08 08:36:46;;;;;;;6.57;1.88;;;;;;;13.44;89.44;99864.81;8287387;28;20034;-54
2022/11/08 08:40:47;;;;;;;3.55;1.48;;;;;;;13.47;88.93;99861.75;8287104;28;20136;-54
2022/11/08 08:44:47;;;;;;;6.38;1.52;;;;;;;13.40;89.46;99845.34;8286682;28;20042;-51
2022/11/08 08:48:48;;;;;;;8.57;1.77;;;;;;;13.50;88.86;99847.81;8287701;28;20041;-51
2022/11/08 08:52:49;;;;;;;4.25;2.05;;;;;;;13.50;89.12;99847.81;8288190;28;20074;-54
2022/11/08 08:56:51;;;;;;;4.55;1.70;;;;;;;13.53;89.23;99851.03;8288212;28;20042;-53
2022/11/08 09:00:52;;;;;;;4.53;1.70;;;;;;;13.60;88.64;99856.59;8261040;28;20563;-52
2022/11/08 09:04:52;;;;;;;5.38;1.88;;;;;;;13.66;88.00;99845.03;8257837;28;20400;-55
2022/11/08 09:08:53;;;;;;;2.53;1.52;;;;;;;13.64;88.08;99864.22;8263018;28;20407;-54
2022/11/08 09:12:53;;;;;;;6.10;1.40;;;;;;;13.68;87.84;99872.88;8272901;28;20121;-53
2022/11/08 09:17:20;;;;;;;4.95;1.38;;;;;;;13.74;87.34;99873.03;8288509;28;20042;-53
2022/11/08 09:21:21;;;;;;;7.05;1.48;;;;;;;13.77;87.62;99877.25;8285147;28;20947;-52
2022/11/08 09:25:21;;;;;;;3.25;1.73;;;;;;;13.76;88.53;99870.97;8287648;28;20503;-55
2022/11/08 09:29:22;;;;;;;7.32;1.70;;;;;;;13.77;88.84;99860.97;8280257;28;20124;-53
2022/11/08 09:33:24;;;;;;;3.30;1.60;;;;;;;13.80;87.94;99861.47;8288727;28;20119;-55
2022/11/08 09:37:25;;;;;;;3.20;1.58;;;;;;;13.92;86.24;99842.88;8288331;28;20100;-54
2022/11/08 09:42:04;;;;;;;2.85;1.58;;;;;;;14.06;85.56;99850.25;8285395;28;20042;-52
2022/11/08 09:46:10;;;;;;;5.22;1.60;;;;;;;14.25;84.30;99849.84;8287604;28;20042;-51
2022/11/08 09:50:34;;;;;;;4.00;1.65;;;;;;;14.51;83.21;99842.16;8291159;28;20041;-51
2022/11/08 09:54:41;;;;;;;3.85;1.55;;;;;;;14.66;81.77;99843.06;8295926;28;20054;-52
2022/11/08 09:58:49;;;;;;;4.10;1.98;;;;;;;14.67;82.35;99828.41;8294540;28;20048;-53
2022/11/08 10:02:49;;;;;;;5.43;2.47;;;;;;;14.75;81.96;99824.78;8293628;28;20513;-54
2022/11/08 10:07:06;;;;;;;3.83;1.90;;;;;;;14.87;81.30;99824.16;8295339;28;20333;-55
2022/11/08 10:11:46;;;;;;;4.47;2.70;;;;;;;15.02;80.78;99822.31;8294415;28;20072;-51
2022/11/08 10:16:00;;;;;;;4.57;2.40;;;;;;;15.10;80.02;99824.09;8294558;28;20175;-51
2022/11/08 10:20:21;;;;;;;4.22;2.60;;;;;;;15.19;79.37;99812.91;8294525;28;20108;-51
2022/11/08 10:24:51;;;;;;;4.90;2.50;;;;;;;15.40;77.84;99815.78;8294827;28;20052;-52
2022/11/08 10:29:02;;;;;;;5.68;3.05;;;;;;;15.62;76.78;99814.81;8292117;28;20038;-51
2022/11/08 10:33:16;;;;;;;7.70;4.13;;;;;;;15.88;76.26;99802.53;8292787;28;20052;-54
2022/11/08 10:37:17;;;;;;;;;;;;;;;16.05;76.38;99793.09;8293588;28;20044;-51
2022/11/08 10:41:58;;;;;;;6.43;4.00;;;;;;;16.29;74.92;99787.28;8293974;28;20248;-52
2022/11/08 10:45:58;;;;;;;5.18;2.65;;;;;;;16.49;75.16;99791.06;8293514;28;20096;-54
2022/11/08 10:49:59;;;;;;;6.45;3.42;;;;;;;16.77;74.34;99783.78;8276192;28;20038;-52
2022/11/08 10:54:00;;;;;;;5.90;1.70;;;;;;;16.98;72.55;99759.97;8261322;28;20053;-51
2022/11/08 10:58:01;;;;;;;6.75;2.65;;;;;;;17.24;71.33;99762.88;8286566;28;20160;-51
2022/11/08 11:02:01;;;;;;;3.25;1.20;;;;;;;17.40;70.38;99751.59;8291804;28;20518;-53
2022/11/08 11:06:05;;;;;;;5.60;1.38;;;;;;;18.22;67.20;99746.84;8275603;28;20046;-52
2022/11/08 11:14:39;;;;;;;1.48;1.00;;;;;;;19.31;63.09;99754.44;8350596;27;20396;-51
2022/11/08 11:18:49;;;;;;;3.30;1.27;;;;;;;20.10;61.27;99742.00;8344630;28;20174;-52
2022/11/08 11:22:52;;;;;;;5.45;1.25;;;;;;;20.60;60.47;99748.44;8356325;28;20037;-50
2022/11/08 11:26:59;;;;;;;4.32;1.15;;;;;;;20.25;60.49;99711.56;8380412;28;20057;-51
2022/11/08 11:31:04;;;;;;;3.85;1.17;;;;;;;19.43;62.19;99720.63;8347362;28;20036;-54
2022/11/08 11:35:06;;;;;;;;;;;;;;;19.15;62.99;99721.94;8349007;28;20140;-51
2022/11/08 11:39:15;;;;;;;3.72;1.42;;;;;;;18.80;63.83;99717.81;8349936;28;19917;-52
2022/11/08 11:43:29;;;;;;;5.88;1.30;;;;;;;18.59;63.77;99702.47;8349627;28;20041;-51
2022/11/08 11:47:36;;;;;;;2.60;1.08;;;;;;;18.57;64.51;99715.50;8349526;28;20037;-54
2022/11/08 11:51:36;;;;;;;4.25;1.00;;;;;;;18.75;63.87;99721.19;8349233;28;20120;-51
2022/11/08 11:55:58;;;;;;;3.85;1.17;;;;;;;18.94;62.70;99701.13;8349319;28;20033;-53
2022/11/08 12:00:08;;;;;;;2.13;0.95;;;;;;;18.84;63.25;99722.66;8348882;28;20541;-54
2022/11/08 12:04:44;;;;;;;7.55;0.98;;;;;;;18.73;63.65;99711.50;8349309;28;20041;-51
2022/11/08 12:09:20;;;;;;;7.70;1.40;;;;;;;18.54;65.08;99726.88;8348634;28;20636;-51
2022/11/08 12:13:47;;;;;;;2.85;1.17;;;;;;;18.43;64.88;99719.31;8348692;28;20033;-52
2022/11/08 12:22:34;;;;;;;4.80;1.23;;;;;;;18.68;64.78;99761.44;8356269;27;1189120;-51
2022/11/08 12:27:04;;;;;;;9.40;1.70;;;;;;;18.77;65.16;99754.69;8387113;28;20051;-51
2022/11/08 12:31:27;;;;;;;2.58;1.02;;;;;;;18.73;64.71;99764.38;8415939;28;20513;-51
2022/11/08 12:40:33;;;;;;;5.57;1.63;;;;;;;18.28;66.31;99778.84;8408160;27;20450;-54
2022/11/08 12:57:59;;;;;;;2.38;0.90;;;;;;;18.40;67.21;99725.22;8397151;27;20353;-55
2022/11/08 13:02:01;;;;;;;2.15;1.00;;;;;;;18.52;66.75;99718.06;8394366;27;20171;-52
2022/11/08 13:06:13;;;;;;;6.13;1.10;;;;;;;18.65;66.43;99712.56;8359127;28;20041;-51
2022/11/08 13:10:42;;;;;;;6.22;1.20;;;;;;;18.73;65.83;99709.59;8346007;28;20052;-54
2022/11/08 13:14:42;;;;;;;2.28;1.15;;;;;;;18.75;65.33;99702.03;8358947;28;20075;-54
2022/11/08 13:18:51;;;;;;;3.60;1.40;;;;;;;19.02;64.91;99708.28;8368108;28;20045;-53
2022/11/08 13:22:59;;;;;;;3.65;0.98;;;;;;;19.12;64.75;99712.25;8327394;28;20395;-55
2022/11/08 13:27:22;;;;;;;8.20;1.00;;;;;;;19.27;64.57;99693.69;8323060;28;20091;-51
2022/11/08 13:31:53;;;;;;;5.25;1.33;;;;;;;19.25;63.91;99712.22;8376887;28;20048;-55
2022/11/08 13:49:22;;;;;;;2.05;1.10;;;;;;;19.20;64.43;99709.31;8373821;27;20386;-53
2022/11/08 13:53:45;;;;;;;2.15;1.10;;;;;;;19.18;64.74;99705.94;8413883;28;20051;-55
2022/11/08 13:57:56;;;;;;;2.88;1.15;;;;;;;19.09;65.29;99704.47;8411037;28;20078;-54
2022/11/08 14:02:02;;;;;;;3.40;0.80;;;;;;;19.11;64.99;99707.84;8409269;28;20040;-53
2022/11/08 14:10:28;;;;;;;2.75;1.20;;;;;;;19.01;64.82;99674.59;8331517;27;20411;-55
2022/11/08 14:19:22;;;;;;;3.03;1.02;;;;;;;18.84;65.74;99711.69;8401917;27;20422;-53
2022/11/08 14:27:41;;;;;;;2.35;1.10;;;;;;;18.65;66.73;99722.66;8298199;28;20447;-52
2022/11/08 14:32:05;;;;;;;3.53;1.05;;;;;;;18.53;66.93;99708.78;8280197;28;20042;-51
2022/11/08 14:36:12;;;;;;;2.58;1.20;;;;;;;18.48;67.36;99700.34;8282213;28;20042;-54
2022/11/08 14:40:20;;;;;;;3.53;1.00;;;;;;;18.40;67.81;99697.84;8269615;28;20069;-53
2022/11/08 14:44:22;;;;;;;5.95;1.10;;;;;;;18.29;68.84;99712.13;8262441;28;20038;-54
2022/11/08 14:48:27;;;;;;;5.43;1.27;;;;;;;18.15;69.38;99699.50;8274118;28;20322;-51
2022/11/08 14:52:30;;;;;;;3.80;1.17;;;;;;;18.18;69.41;99715.50;8261565;28;20117;-53
2022/11/08 14:56:38;;;;;;;3.47;1.17;;;;;;;18.23;69.37;99712.94;8249946;28;20050;-55
2022/11/08 15:00:42;;;;;;;2.38;1.20;;;;;;;18.21;69.49;99709.56;8277960;28;20081;-54
2022/11/08 15:04:43;;;;;;;2.60;1.05;;;;;;;18.22;69.61;99716.75;8281264;28;20086;-51
2022/11/08 15:08:49;;;;;;;4.72;1.17;;;;;;;18.20;69.93;99710.63;8276049;28;20543;-51
2022/11/08 15:12:50;;;;;;;1.88;0.70;;;;;;;18.22;70.00;99705.81;8272945;28;20041;-53
2022/11/08 15:16:53;;;;;;;7.10;1.52;;;;;;;18.21;70.12;99704.09;8281569;28;20061;-51
2022/11/08 15:20:59;;;;;;;2.75;1.00;;;;;;;18.16;70.37;99701.16;8280534;28;20096;-53
2022/11/08 15:25:20;;;;;;;2.97;1.33;;;;;;;18.14;70.32;99708.72;8254634;28;20408;-54
2022/11/08 15:29:24;;;;;;;3.17;1.35;;;;;;;18.00;71.11;99698.84;8267070;28;20049;-51
2022/11/08 15:33:32;;;;;;;4.47;1.20;;;;;;;18.09;70.49;99700.31;8258168;28;20039;-53
2022/11/08 15:37:37;;;;;;;5.72;1.27;;;;;;;17.91;71.21;99697.34;8220199;28;20105;-55
2022/11/08 15:41:39;;;;;;;2.53;1.38;;;;;;;17.90;71.60;99701.09;8235299;28;20129;-51
2022/11/08 15:45:52;;;;;;;4.32;1.55;;;;;;;17.89;71.43;99710.38;8227982;28;20038;-54
2022/11/08 15:49:52;;;;;;;5.25;1.30;;;;;;;17.81;71.65;99696.88;8230721;28;20417;-55
2022/11/08 15:53:53;;;;;;;6.40;1.30;;;;;;;17.85;71.45;99698.19;8240010;28;20075;-55
2022/11/08 15:57:55;;;;;;;5.07;1.30;;;;;;;17.82;71.74;99687.66;8248537;28;20043;-56
2022/11/08 16:01:58;;;;;;;2.47;1.20;;;;;;;17.82;71.73;99679.44;8258425;28;20507;-56
2022/11/08 16:05:58;;;;;;;5.45;1.20;;;;;;;17.73;71.92;99680.69;8257731;28;20498;-56
2022/11/08 16:09:59;;;;;;;4.47;1.48;;;;;;;17.72;71.95;99668.06;8257690;28;20439;-56
2022/11/08 16:13:59;;;;;;;2.92;1.00;;;;;;;17.76;71.78;99655.66;8240446;28;20035;-56
2022/11/08 16:18:01;;;;;;;2.92;1.05;;;;;;;17.70;72.13;99667.44;8225963;28;20116;-55
2022/11/08 16:22:06;;;;;;;4.90;1.35;;;;;;;17.72;72.01;99659.88;8239713;28;20500;-55
2022/11/08 16:26:13;;;;;;;2.03;1.13;;;;;;;17.70;72.02;99678.38;8225194;28;20367;-54
2022/11/08 16:30:15;;;;;;;3.38;1.13;;;;;;;17.64;72.70;99701.06;8250634;28;20039;-55
2022/11/08 16:34:16;;;;;;;2.95;1.15;;;;;;;17.55;72.93;99691.34;8257450;28;20295;-55
2022/11/08 16:38:22;;;;;;;2.08;1.10;;;;;;;17.67;72.67;99678.78;8257545;28;20125;-55
2022/11/08 16:42:23;;;;;;;1.98;1.08;;;;;;;17.73;72.33;99685.31;8255627;28;20038;-55
2022/11/08 16:46:23;;;;;;;2.10;1.13;;;;;;;17.70;72.46;99683.84;8256451;28;20035;-56
2022/11/08 16:50:25;;;;;;;2.50;1.50;;;;;;;17.63;72.46;99672.88;8241556;28;20358;-55
2022/11/08 16:54:27;;;;;;;5.35;1.05;;;;;;;17.70;72.62;99689.31;8227231;28;20189;-56
2022/11/08 16:58:27;;;;;;;2.35;1.23;;;;;;;17.73;72.43;99677.94;8241146;28;20038;-55
2022/11/08 17:02:30;;;;;;;4.50;1.60;;;;;;;17.72;72.50;99670.81;8237449;28;20092;-55
2022/11/08 17:06:30;;;;;;;4.82;1.15;;;;;;;17.78;72.26;99678.16;8253917;28;20038;-56
2022/11/08 17:10:31;;;;;;;2.63;1.33;;;;;;;17.80;72.45;99664.28;8257778;28;20049;-56
2022/11/08 17:14:31;;;;;;;3.55;0.90;;;;;;;17.76;72.42;99672.06;8258052;28;20047;-55
2022/11/08 17:18:32;;;;;;;6.15;1.30;;;;;;;17.63;72.99;99672.03;8256359;28;20049;-57
2022/11/08 17:22:33;;;;;;;2.38;1.33;;;;;;;17.56;73.55;99684.84;8239961;28;20544;-55
2022/11/08 17:26:33;;;;;;;4.10;1.08;;;;;;;17.50;73.71;99682.91;8242178;28;20465;-55
2022/11/08 17:30:35;;;;;;;4.57;1.25;;;;;;;17.43;74.12;99682.06;8244443;28;20046;-56
2022/11/08 17:34:36;;;;;;;3.42;0.95;;;;;;;17.58;73.51;99680.00;8236020;28;20042;-56
2022/11/08 17:38:38;;;;;;;4.13;1.33;;;;;;;17.56;73.56;99666.56;8225545;28;20077;-54
2022/11/08 17:42:39;;;;;;;4.63;1.50;;;;;;;17.49;73.77;99676.63;8227537;28;20109;-53
2022/11/08 17:46:39;;;;;;;2.85;1.70;;;;;;;17.39;74.40;99680.75;8239953;28;20038;-55
2022/11/08 17:50:40;;;;;;;1.88;0.98;;;;;;;17.49;74.32;99689.44;8252663;28;20050;-56
2022/11/08 17:54:41;;;;;;;2.33;1.00;;;;;;;17.50;74.19;99682.91;8251855;28;20384;-53
2022/11/08 17:58:42;;;;;;;3.25;1.33;;;;;;;17.49;74.41;99678.50;8243665;28;20396;-55
2022/11/08 18:02:44;;;;;;;3.40;1.00;;;;;;;17.49;74.50;99682.09;8229509;28;20042;-56
2022/11/08 18:06:45;;;;;;;1.63;0.90;;;;;;;17.49;74.67;99681.25;8243044;28;20034;-55
2022/11/08 18:10:45;;;;;;;2.80;1.35;;;;;;;17.48;74.81;99691.31;8243393;28;20043;-54
2022/11/08 18:14:46;;;;;;;4.05;1.23;;;;;;;17.52;74.59;99687.16;8242588;28;20073;-54
2022/11/08 18:18:48;;;;;;;2.45;1.25;;;;;;;17.52;74.76;99702.69;8256469;28;20042;-55
2022/11/08 18:22:48;;;;;;;1.90;1.08;;;;;;;17.47;75.29;99694.25;8256741;28;20034;-55
2022/11/08 18:26:49;;;;;;;3.55;1.10;;;;;;;17.43;75.44;99687.53;8250892;28;20049;-56
2022/11/08 18:30:50;;;;;;;3.83;1.10;;;;;;;17.35;75.65;99680.31;8251773;28;20042;-55
2022/11/08 18:34:50;;;;;;;3.97;1.33;;;;;;;17.48;75.65;99682.28;8230965;28;20035;-56
2022/11/08 18:38:52;;;;;;;4.32;1.33;;;;;;;17.45;75.63;99674.50;8247224;28;20555;-54
2022/11/08 18:42:52;;;;;;;2.63;1.17;;;;;;;17.44;75.72;99664.59;8233240;28;20042;-56
2022/11/08 18:46:53;;;;;;;7.35;2.78;;;;;;;17.37;76.32;99671.91;8232576;28;20031;-56
2022/11/08 18:50:53;;;;;;;4.30;2.10;;;;;;;17.33;76.70;99670.66;8252319;28;20547;-55
2022/11/08 18:54:54;;;;;;;2.83;1.70;;;;;;;17.31;76.94;99667.25;8255610;28;20101;-58
2022/11/08 18:58:55;;;;;;;2.88;1.23;;;;;;;17.22;77.17;99668.50;8254320;28;20066;-56
2022/11/08 19:02:55;;;;;;;3.00;1.23;;;;;;;17.20;77.52;99670.59;8242637;28;20117;-56
2022/11/08 19:06:56;;;;;;;3.63;1.70;;;;;;;17.18;77.69;99673.53;8243460;28;20090;-56
2022/11/08 19:10:59;;;;;;;6.47;1.60;;;;;;;17.21;77.54;99675.84;8241011;28;20046;-56
2022/11/08 19:14:59;;;;;;;4.00;1.60;;;;;;;17.11;77.71;99689.03;8253435;28;20052;-56
2022/11/08 19:19:00;;;;;;;3.15;1.27;;;;;;;17.09;77.89;99684.81;8257221;28;20133;-56
2022/11/08 19:23:01;;;;;;;3.08;1.52;;;;;;;17.04;78.37;99687.31;8255399;28;20035;-56
2022/11/08 19:27:01;;;;;;;2.47;1.40;;;;;;;16.96;78.91;99695.69;8226345;28;20508;-56
2022/11/08 19:31:03;;;;;;;3.40;1.50;;;;;;;16.97;78.89;99691.91;8234906;28;20069;-55
2022/11/08 19:35:04;;;;;;;4.97;1.55;;;;;;;16.88;79.37;99704.03;8239784;28;20054;-55
2022/11/08 19:39:04;;;;;;;5.03;1.70;;;;;;;16.66;80.43;99708.72;8254049;28;20081;-56
2022/11/08 19:43:05;;;;;;;3.20;1.60;;;;;;;16.66;80.38;99705.13;8245501;28;20046;-55
2022/11/08 19:47:13;;;;;;;3.60;1.77;;;;;;;16.73;80.71;99700.56;8256008;28;20097;-55
2022/11/08 19:51:16;;;;;;;2.30;1.25;;;;;;;16.76;80.57;99703.75;8253439;28;20046;-55
2022/11/08 19:55:17;;;;;;;2.92;1.45;;;;;;;16.83;80.57;99698.31;8232928;28;20508;-55
2022/11/08 19:59:17;;;;;;;3.38;1.27;;;;;;;16.85;80.31;99702.53;8223020;28;20415;-52
2022/11/08 20:03:18;;;;;;;4.35;1.33;;;;;;;16.88;80.57;99709.50;8232954;28;20035;-56
2022/11/08 20:07:19;;;;;;;3.35;1.20;;;;;;;16.77;80.80;99712.78;8249392;28;20030;-56
2022/11/08 20:11:22;;;;;;;4.82;1.30;;;;;;;16.90;80.61;99707.41;8244986;28;20518;-56
2022/11/08 20:15:23;;;;;;;2.55;1.27;;;;;;;16.85;80.62;99705.28;8246271;28;20038;-56